createdAt,value
2018-11-22T12:15:54.513Z,4.50
2018-11-22T12:18:22.568Z,4.50
2018-11-22T12:20:50.631Z,4.50
2018-11-22T12:23:18.735Z,4.60
2018-11-22T12:25:46.789Z,4.70
2018-11-22T12:28:14.982Z,4.80
2018-11-22T12:30:43.042Z,5.00
2018-11-22T12:33:19.401Z,5.20
2018-11-22T12:35:53.488Z,5.60
2018-11-22T12:38:26.978Z,5.80
2018-11-22T12:40:55.079Z,5.70
2018-11-22T12:43:23.262Z,5.80
2018-11-22T12:45:51.534Z,5.90
2018-11-22T12:48:19.978Z,5.90
2018-11-22T12:50:48.195Z,5.90
2018-11-22T12:53:23.190Z,5.80
2018-11-22T12:55:52.134Z,5.80
2018-11-22T12:58:20.213Z,5.80
2018-11-22T13:00:48.258Z,5.90
2018-11-22T13:03:16.372Z,5.70
2018-11-22T13:05:44.527Z,5.80
2018-11-22T13:08:12.650Z,5.70
2018-11-22T13:10:40.773Z,5.50
2018-11-22T13:13:08.902Z,5.40
2018-11-22T13:15:37.905Z,5.20
2018-11-22T13:18:06.314Z,5.10
2018-11-22T13:20:34.554Z,5.10
2018-11-22T13:23:02.469Z,5.20
2018-11-22T13:25:30.707Z,5.20
2018-11-22T13:27:58.841Z,5.10
2018-11-22T13:30:27.938Z,5.00
2018-11-22T13:32:56.665Z,5.00
2018-11-22T13:35:24.735Z,5.10
2018-11-22T13:37:53.890Z,4.90
2018-11-22T13:40:22.041Z,4.80
2018-11-22T13:42:50.775Z,4.70
2018-11-22T13:45:21.175Z,4.50
2018-11-22T13:47:50.388Z,4.30
2018-11-22T13:50:23.883Z,4.10
2018-11-22T13:52:54.355Z,4.00
2018-11-22T13:55:22.419Z,4.00
2018-11-22T13:57:50.413Z,3.80
2018-11-22T14:00:21.499Z,3.70
2018-11-22T14:02:51.034Z,3.60
2018-11-22T14:05:19.094Z,3.70
2018-11-22T14:07:47.189Z,3.70
2018-11-22T14:10:16.783Z,3.60
2018-11-22T14:12:44.956Z,3.50
2018-11-22T14:15:15.245Z,3.60
2018-11-22T14:17:43.915Z,3.70
2018-11-22T14:20:14.492Z,3.60
2018-11-22T14:22:42.649Z,3.60
2018-11-22T14:25:11.930Z,3.50
2018-11-22T14:27:40.770Z,3.50
2018-11-22T14:30:10.779Z,3.50
2018-11-22T14:32:39.727Z,3.40
2018-11-22T14:35:09.262Z,3.40
2018-11-22T14:37:37.532Z,3.40
2018-11-22T14:40:08.935Z,3.40
2018-11-22T14:42:37.133Z,3.40
2018-11-22T14:45:05.958Z,3.30
2018-11-22T14:47:34.053Z,3.30
2018-11-22T14:50:02.394Z,3.30
2018-11-22T14:52:30.506Z,3.30
2018-11-22T14:54:58.819Z,3.30
2018-11-22T14:57:27.015Z,3.20
2018-11-22T14:59:55.928Z,3.20
2018-11-22T15:02:24.110Z,3.10
2018-11-22T15:04:52.232Z,3.10
2018-11-22T15:07:20.561Z,3.10
2018-11-22T15:09:48.685Z,3.10
2018-11-22T15:12:16.750Z,3.10
2018-11-22T15:14:44.843Z,3.10
2018-11-22T15:17:12.994Z,3.00
2018-11-22T15:19:41.590Z,2.80
2018-11-22T15:22:09.748Z,2.70
2018-11-22T15:24:37.943Z,2.70
2018-11-22T15:27:06.033Z,2.70
2018-11-22T15:29:34.781Z,2.70
2018-11-22T15:32:02.969Z,2.60
2018-11-22T15:34:31.120Z,2.60
2018-11-22T15:36:59.339Z,2.50
2018-11-22T15:39:27.333Z,2.50
2018-11-22T15:41:55.557Z,2.40
2018-11-22T15:44:24.549Z,2.40
2018-11-22T15:46:52.623Z,2.30
2018-11-22T15:49:20.920Z,2.30
2018-11-22T15:51:49.149Z,2.20
2018-11-22T15:54:17.354Z,2.20
2018-11-22T15:56:45.527Z,2.10
2018-11-22T15:59:13.700Z,2.10
2018-11-22T16:01:42.361Z,2.00
2018-11-22T16:04:10.562Z,2.00
2018-11-22T16:06:38.713Z,1.90
2018-11-22T16:09:09.759Z,1.80
2018-11-22T16:11:37.948Z,1.70
2018-11-22T16:14:06.264Z,1.60
2018-11-22T16:16:34.589Z,1.50
2018-11-22T16:19:02.804Z,1.50
2018-11-22T16:21:31.022Z,1.40
2018-11-22T16:23:59.217Z,1.40
2018-11-22T16:26:27.413Z,1.50
2018-11-22T16:28:55.548Z,1.50
2018-11-22T16:31:23.647Z,1.40
2018-11-22T16:33:51.787Z,1.40
2018-11-22T16:36:19.708Z,1.40
2018-11-22T16:38:47.619Z,1.50
2018-11-22T16:41:15.594Z,1.60
2018-11-22T16:43:43.516Z,1.60
2018-11-22T16:46:11.453Z,1.60
2018-11-22T16:48:39.433Z,1.60
2018-11-22T16:51:07.337Z,1.60
2018-11-22T16:53:35.285Z,1.60
2018-11-22T16:56:03.228Z,1.70
2018-11-22T16:58:31.490Z,1.70
2018-11-22T17:00:59.405Z,1.70
2018-11-22T17:03:27.617Z,1.80
2018-11-22T17:05:55.814Z,1.80
2018-11-22T17:08:23.757Z,1.90
2018-11-22T17:10:51.994Z,1.90
2018-11-22T17:13:20.109Z,1.90
2018-11-22T17:15:48.413Z,1.90
2018-11-22T17:18:16.461Z,2.00
2018-11-22T17:20:44.958Z,1.90
2018-11-22T17:23:13.202Z,1.90
2018-11-22T17:25:41.310Z,2.00
2018-11-22T17:28:09.805Z,2.00
2018-11-22T17:30:39.692Z,1.90
2018-11-22T17:33:08.854Z,1.90
2018-11-22T17:35:38.383Z,1.90
2018-11-22T17:38:07.542Z,1.90
2018-11-22T17:40:38.030Z,2.00
2018-11-22T17:43:06.506Z,2.00
2018-11-22T17:45:38.383Z,2.00
2018-11-22T17:48:06.704Z,2.10
2018-11-22T17:50:36.390Z,2.10
2018-11-22T17:53:04.951Z,2.10
2018-11-22T17:55:33.513Z,2.20
2018-11-22T17:58:01.715Z,2.20
2018-11-22T18:00:33.694Z,2.20
2018-11-22T18:03:02.822Z,2.20
2018-11-22T18:05:31.222Z,2.20
2018-11-22T18:07:59.464Z,2.20
2018-11-22T18:10:30.961Z,2.20
2018-11-22T18:12:59.433Z,2.20
2018-11-22T18:15:28.426Z,2.20
2018-11-22T18:17:56.809Z,2.20
2018-11-22T18:20:26.552Z,2.30
2018-11-22T18:22:55.633Z,2.30
2018-11-22T18:25:24.985Z,2.40
2018-11-22T18:27:53.383Z,2.30
2018-11-22T18:30:29.711Z,2.40
2018-11-22T18:32:59.825Z,2.40
2018-11-22T18:35:28.128Z,2.40
2018-11-22T18:37:56.329Z,2.40
2018-11-22T18:40:26.624Z,2.50
2018-11-22T18:42:55.800Z,2.50
2018-11-22T18:45:30.503Z,2.40
2018-11-22T18:47:59.281Z,2.40
2018-11-22T18:50:28.317Z,2.40
2018-11-22T18:52:56.630Z,2.40
2018-11-22T18:55:24.793Z,2.40
2018-11-22T18:57:53.071Z,2.40
2018-11-22T19:00:25.078Z,2.40
2018-11-22T19:02:54.415Z,2.40
2018-11-22T19:05:23.016Z,2.40
2018-11-22T19:07:52.656Z,2.50
2018-11-22T19:10:29.083Z,2.50
2018-11-22T19:12:58.496Z,2.50
2018-11-22T19:15:28.020Z,2.50
2018-11-22T19:17:56.111Z,2.50
2018-11-22T19:20:27.458Z,2.50
2018-11-22T19:22:56.292Z,2.60
2018-11-22T19:25:24.577Z,2.60
2018-11-22T19:27:53.150Z,2.60
2018-11-22T19:30:24.929Z,2.60
2018-11-22T19:32:54.449Z,2.60
2018-11-22T19:35:23.843Z,2.60
2018-11-22T19:37:52.290Z,2.50
2018-11-22T19:40:25.590Z,2.50
2018-11-22T19:42:54.721Z,2.50
2018-11-22T19:45:24.254Z,2.40
2018-11-22T19:47:52.880Z,2.40
2018-11-22T19:50:23.295Z,2.40
2018-11-22T19:52:51.944Z,2.30
2018-11-22T19:55:22.878Z,2.30
2018-11-22T19:57:53.549Z,2.30
2018-11-22T20:00:22.662Z,2.30
2018-11-22T20:02:51.586Z,2.20
2018-11-22T20:05:20.561Z,2.20
2018-11-22T20:07:50.945Z,2.20
2018-11-22T20:10:22.273Z,2.20
2018-11-22T20:12:51.125Z,2.20
2018-11-22T20:15:19.319Z,2.20
2018-11-22T20:17:48.254Z,2.20
2018-11-22T20:20:18.122Z,2.10
2018-11-22T20:22:45.735Z,2.20
2018-11-22T20:25:13.860Z,2.20
2018-11-22T20:27:42.346Z,2.20
2018-11-22T20:30:13.617Z,2.10
2018-11-22T20:32:42.348Z,2.10
2018-11-22T20:35:12.236Z,2.10
2018-11-22T20:37:40.258Z,2.10
2018-11-22T20:40:09.681Z,2.10
2018-11-22T20:42:38.295Z,2.10
2018-11-22T20:45:08.055Z,2.20
2018-11-22T20:47:36.193Z,2.20
2018-11-22T20:50:05.359Z,2.20
2018-11-22T20:52:33.810Z,2.10
2018-11-22T20:55:01.885Z,2.10
2018-11-22T20:57:30.035Z,2.00
2018-11-22T20:59:58.150Z,2.00
2018-11-22T21:02:27.784Z,1.80
2018-11-22T21:04:55.986Z,1.60
2018-11-22T21:07:23.940Z,1.60
2018-11-22T21:09:52.134Z,1.60
2018-11-22T21:12:20.073Z,1.60
2018-11-22T21:14:48.104Z,1.60
2018-11-22T21:17:16.041Z,1.60
2018-11-22T21:19:44.082Z,1.70
2018-11-22T21:22:12.189Z,1.70
2018-11-22T21:24:40.550Z,1.80
2018-11-22T21:27:08.629Z,1.80
2018-11-22T21:29:38.656Z,1.80
2018-11-22T21:32:07.032Z,1.90
2018-11-22T21:34:35.007Z,1.90
2018-11-22T21:37:03.047Z,1.90
2018-11-22T21:39:31.096Z,2.00
2018-11-22T21:41:59.212Z,2.00
2018-11-22T21:44:27.149Z,2.00
2018-11-22T21:46:55.238Z,2.00
2018-11-22T21:49:24.328Z,2.00
2018-11-22T21:51:54.584Z,2.00
2018-11-22T21:54:22.749Z,2.10
2018-11-22T21:56:54.495Z,2.10
2018-11-22T21:59:22.686Z,2.10
2018-11-22T22:01:52.207Z,2.10
2018-11-22T22:04:20.373Z,2.10
2018-11-22T22:06:48.433Z,2.20
2018-11-22T22:09:16.410Z,2.20
2018-11-22T22:11:44.396Z,2.20
2018-11-22T22:14:12.418Z,2.20
2018-11-22T22:16:40.383Z,2.20
2018-11-22T22:19:08.413Z,2.20
2018-11-22T22:21:36.473Z,2.20
2018-11-22T22:24:04.526Z,2.20
2018-11-22T22:26:32.712Z,2.10
2018-11-22T22:29:00.725Z,2.10
2018-11-22T22:31:31.200Z,2.10
2018-11-22T22:33:59.237Z,2.10
2018-11-22T22:36:28.169Z,2.10
2018-11-22T22:38:56.762Z,2.10
2018-11-22T22:41:31.837Z,2.10
2018-11-22T22:44:01.608Z,2.10
2018-11-22T22:46:29.612Z,2.10
2018-11-22T22:48:58.728Z,2.00
2018-11-22T22:51:49.034Z,2.00
2018-11-22T22:54:40.450Z,2.00
2018-11-22T22:57:34.341Z,2.00
2018-11-22T23:00:31.063Z,2.00
2018-11-22T23:03:18.877Z,2.00
2018-11-22T23:06:14.988Z,2.00
2018-11-22T23:09:11.576Z,2.10
2018-11-22T23:12:11.614Z,2.10
2018-11-22T23:15:10.497Z,2.10
2018-11-22T23:18:09.267Z,2.10
2018-11-22T23:21:07.192Z,2.00
2018-11-22T23:24:01.674Z,2.00
2018-11-22T23:29:52.255Z,2.00
2018-11-22T23:32:45.467Z,2.00
2018-11-22T23:38:43.053Z,2.00
2018-11-22T23:41:40.946Z,2.00
2018-11-22T23:44:35.467Z,2.00
2018-11-22T23:47:28.790Z,2.00
2018-11-22T23:50:31.744Z,2.00
2018-11-22T23:53:25.775Z,2.00
2018-11-22T23:58:06.439Z,2.00
